Time;durP1;ratioP1;P1;durP2;ratioP2;P2;SDS_P1;SDS_P2;PMS_P1;PMS_P2;Temp;Humidity;BMP_temperature;BMP_pressure;BME280_temperature;BME280_humidity;BME280_pressure;Samples;Min_cycle;Max_cycle;Signal;HPM_P1;HPM_P2
2022/05/16 00:02:11;;;;;;;1.33;1.23;;;;;;;;;;6295597;22;20353;-46
2022/05/16 00:04:37;;;;;;;2.92;2.38;;;;;;;;;;6293022;22;20007;-49
2022/05/16 00:07:02;;;;;;;1.55;1.42;;;;;;;;;;6294981;22;20012;-46
2022/05/16 00:09:27;;;;;;;0.95;0.95;;;;;;;;;;6292571;22;20038;-45
2022/05/16 00:11:53;;;;;;;2.92;2.33;;;;;;;;;;6294920;22;20015;-46
2022/05/16 00:14:18;;;;;;;3.03;2.78;;;;;;;;;;6292520;22;20007;-45
2022/05/16 00:16:43;;;;;;;2.15;1.85;;;;;;;;;;6296206;22;20026;-47
2022/05/16 00:19:09;;;;;;;7.40;1.55;;;;;;;;;;6265769;22;20066;-47
2022/05/16 00:21:35;;;;;;;1.80;0.98;;;;;;;;;;6295482;22;20045;-47
2022/05/16 00:24:00;;;;;;;1.42;1.33;;;;;;;;;;6292663;22;20357;-45
2022/05/16 00:26:25;;;;;;;1.38;1.15;;;;;;;;;;6294355;22;20018;-46
2022/05/16 00:28:51;;;;;;;4.10;1.63;;;;;;;;;;6292374;22;20003;-48
2022/05/16 00:31:16;;;;;;;4.47;1.73;;;;;;;;;;6294510;22;20015;-45
2022/05/16 00:33:41;;;;;;;3.03;1.20;;;;;;;;;;6293638;22;20033;-45
2022/05/16 00:36:07;;;;;;;5.70;1.63;;;;;;;;;;6293640;22;20003;-45
2022/05/16 00:38:32;;;;;;;1.38;1.27;;;;;;;;;;6292850;22;20012;-45
2022/05/16 00:40:59;;;;;;;3.58;3.28;;;;;;;;;;6294777;22;20045;-46
2022/05/16 00:44:00;;;;;;;1.67;1.58;;;;;;;;;;6292815;22;20021;-47
2022/05/16 00:46:26;;;;;;;1.08;0.82;;;;;;;;;;6167074;23;20378;-45
2022/05/16 00:48:52;;;;;;;0.38;0.38;;;;;;;;;;6269081;22;20055;-48
2022/05/16 00:51:19;;;;;;;2.22;1.92;;;;;;;;;;6292529;22;20027;-46
2022/05/16 00:53:46;;;;;;;0.73;0.73;;;;;;;;;;6296007;22;20016;-50
2022/05/16 00:56:11;;;;;;;1.48;1.38;;;;;;;;;;6292306;22;20022;-49
2022/05/16 00:58:38;;;;;;;0.95;0.95;;;;;;;;;;6296175;22;20669;-46
2022/05/16 01:01:03;;;;;;;1.23;1.23;;;;;;;;;;6293020;22;20140;-44
2022/05/16 01:06:12;;;;;;;2.50;2.08;;;;;;;;;;6290976;22;20022;-48
2022/05/16 01:08:39;;;;;;;1.13;0.80;;;;;;;;;;6296085;22;20015;-46
2022/05/16 01:11:08;;;;;;;1.83;1.73;;;;;;;;;;6292095;22;20030;-48
2022/05/16 01:13:33;;;;;;;7.10;2.92;;;;;;;;;;6294497;22;20166;-46
2022/05/16 01:15:59;;;;;;;1.98;1.20;;;;;;;;;;6292419;22;20348;-46
2022/05/16 01:18:25;;;;;;;0.88;0.88;;;;;;;;;;6294542;22;20011;-47
2022/05/16 01:21:09;;;;;;;2.20;1.45;;;;;;;;;;6292460;22;20030;-48
2022/05/16 01:23:39;;;;;;;0.90;0.90;;;;;;;;;;6293857;22;20022;-51
2022/05/16 01:26:08;;;;;;;0.82;0.57;;;;;;;;;;6292809;22;20021;-44
2022/05/16 01:28:33;;;;;;;3.03;0.90;;;;;;;;;;6294596;22;20011;-44
2022/05/16 01:30:58;;;;;;;1.70;1.60;;;;;;;;;;6294825;22;20019;-45
2022/05/16 01:33:25;;;;;;;0.50;0.43;;;;;;;;;;6293385;22;20018;-46
2022/05/16 01:35:51;;;;;;;0.35;0.35;;;;;;;;;;6294892;22;20037;-46
2022/05/16 01:38:21;;;;;;;1.15;0.85;;;;;;;;;;6293003;22;20020;-46
2022/05/16 01:40:52;;;;;;;1.40;1.30;;;;;;;;;;6296361;22;20011;-47
2022/05/16 01:43:18;;;;;;;0.65;0.65;;;;;;;;;;6293175;22;20029;-45
2022/05/16 01:45:43;;;;;;;0.32;0.28;;;;;;;;;;6294890;22;20034;-49
2022/05/16 01:48:09;;;;;;;0.40;0.40;;;;;;;;;;6291935;22;20027;-45
2022/05/16 01:50:35;;;;;;;0.15;0.15;;;;;;;;;;6293035;22;20037;-45
2022/05/16 01:53:00;;;;;;;5.60;2.58;;;;;;;;;;6291963;22;20014;-45
2022/05/16 01:55:26;;;;;;;0.30;0.30;;;;;;;;;;6294335;22;20149;-46
2022/05/16 01:57:51;;;;;;;1.88;1.27;;;;;;;;;;6291364;22;20018;-46
2022/05/16 02:00:17;;;;;;;4.03;0.98;;;;;;;;;;6293942;22;20030;-47
2022/05/16 02:02:44;;;;;;;0.30;0.30;;;;;;;;;;6292446;22;20007;-47
2022/05/16 02:05:11;;;;;;;0.20;0.20;;;;;;;;;;6293892;22;20026;-46
2022/05/16 02:07:37;;;;;;;3.20;0.80;;;;;;;;;;6293327;22;20037;-45
2022/05/16 02:10:02;;;;;;;0.50;0.50;;;;;;;;;;6294125;22;20815;-48
2022/05/16 02:12:28;;;;;;;1.10;1.10;;;;;;;;;;6293515;22;20003;-45
2022/05/16 02:14:53;;;;;;;0.60;0.60;;;;;;;;;;6294181;22;20007;-44
2022/05/16 02:17:18;;;;;;;1.05;0.90;;;;;;;;;;6293177;22;20491;-47
2022/05/16 02:19:44;;;;;;;0.20;0.10;;;;;;;;;;6267367;22;20084;-44
2022/05/16 02:24:53;;;;;;;0.30;0.30;;;;;;;;;;6292990;22;20009;-45
2022/05/16 02:27:19;;;;;;;0.40;0.40;;;;;;;;;;6292342;22;20019;-45
2022/05/16 02:29:45;;;;;;;0.80;0.80;;;;;;;;;;6295312;22;20087;-47
2022/05/16 02:32:10;;;;;;;1.17;1.08;;;;;;;;;;6294686;22;20358;-47
2022/05/16 02:34:36;;;;;;;2.28;1.95;;;;;;;;;;6296708;22;20059;-47
2022/05/16 02:37:01;;;;;;;0.30;0.20;;;;;;;;;;6294115;22;20011;-47
2022/05/16 02:39:27;;;;;;;0.30;0.30;;;;;;;;;;6297106;22;20022;-45
2022/05/16 02:41:52;;;;;;;0.25;0.13;;;;;;;;;;6294646;22;20015;-46
2022/05/16 02:44:17;;;;;;;0.03;0.03;;;;;;;;;;6296160;22;20014;-45
2022/05/16 02:46:43;;;;;;;0.28;0.28;;;;;;;;;;6295168;22;20012;-47
2022/05/16 02:49:08;;;;;;;0.00;0.00;;;;;;;;;;6296375;22;20018;-46
2022/05/16 02:51:34;;;;;;;0.13;0.13;;;;;;;;;;6294340;22;20030;-45
2022/05/16 02:53:59;;;;;;;1.23;0.55;;;;;;;;;;6294497;22;20033;-45
2022/05/16 02:56:25;;;;;;;0.00;0.00;;;;;;;;;;6294508;22;20038;-47
2022/05/16 02:58:50;;;;;;;0.05;0.05;;;;;;;;;;6290497;22;20008;-45
2022/05/16 03:01:16;;;;;;;1.00;1.00;;;;;;;;;;6294849;22;20035;-47
2022/05/16 03:03:41;;;;;;;0.65;0.38;;;;;;;;;;6297901;22;20011;-45
2022/05/16 03:06:07;;;;;;;0.50;0.47;;;;;;;;;;6293698;22;20560;-47
2022/05/16 03:08:33;;;;;;;0.35;0.35;;;;;;;;;;6294749;22;20007;-45
2022/05/16 03:10:58;;;;;;;0.30;0.30;;;;;;;;;;6295514;22;20006;-49
2022/05/16 03:13:23;;;;;;;0.10;0.10;;;;;;;;;;6268143;22;20066;-45
2022/05/16 03:15:49;;;;;;;0.20;0.20;;;;;;;;;;6295597;22;20011;-45
2022/05/16 03:18:14;;;;;;;0.30;0.30;;;;;;;;;;6295111;22;20019;-46
2022/05/16 03:20:39;;;;;;;0.20;0.20;;;;;;;;;;6295521;22;20019;-45
2022/05/16 03:23:05;;;;;;;0.22;0.22;;;;;;;;;;6295939;22;20137;-44
2022/05/16 03:25:30;;;;;;;5.28;1.30;;;;;;;;;;6293980;22;20401;-46
2022/05/16 03:27:55;;;;;;;1.83;0.80;;;;;;;;;;6295369;22;20007;-46
2022/05/16 03:30:20;;;;;;;0.10;0.10;;;;;;;;;;6294470;22;20011;-44
2022/05/16 03:32:46;;;;;;;0.52;0.52;;;;;;;;;;6288761;22;20033;-46
2022/05/16 03:35:11;;;;;;;0.00;0.00;;;;;;;;;;6295574;22;20011;-48
2022/05/16 03:37:36;;;;;;;0.55;0.45;;;;;;;;;;6294897;22;20756;-47
2022/05/16 03:42:46;;;;;;;0.63;0.63;;;;;;;;;;6295273;22;20063;-46
2022/05/16 03:45:11;;;;;;;0.50;0.50;;;;;;;;;;6294470;22;20007;-50
2022/05/16 03:47:36;;;;;;;0.52;0.25;;;;;;;;;;6295102;22;20007;-47
2022/05/16 03:50:02;;;;;;;4.18;0.30;;;;;;;;;;6294755;22;20572;-45
2022/05/16 03:52:27;;;;;;;0.00;0.00;;;;;;;;;;6295172;22;20613;-46
2022/05/16 03:54:52;;;;;;;0.00;0.00;;;;;;;;;;6295449;22;20011;-46
2022/05/16 03:57:17;;;;;;;0.43;0.43;;;;;;;;;;6294300;22;20019;-47
2022/05/16 03:59:43;;;;;;;0.55;0.55;;;;;;;;;;6296265;22;20011;-45
2022/05/16 04:02:08;;;;;;;2.38;0.77;;;;;;;;;;6293663;22;20106;-47
2022/05/16 04:04:33;;;;;;;0.30;0.30;;;;;;;;;;6295945;22;20022;-46
2022/05/16 04:06:59;;;;;;;0.08;0.08;;;;;;;;;;6293580;22;20016;-48
2022/05/16 04:09:24;;;;;;;0.63;0.63;;;;;;;;;;6294368;22;20011;-47
2022/05/16 04:11:49;;;;;;;0.35;0.35;;;;;;;;;;6295859;22;20038;-47
2022/05/16 04:14:15;;;;;;;0.35;0.35;;;;;;;;;;6293053;22;20026;-45
2022/05/16 04:16:40;;;;;;;0.25;0.25;;;;;;;;;;6295702;22;20011;-44
2022/05/16 04:19:09;;;;;;;0.70;0.70;;;;;;;;;;6295329;22;20094;-48
2022/05/16 04:21:35;;;;;;;0.40;0.40;;;;;;;;;;6294710;22;20756;-45
2022/05/16 04:24:01;;;;;;;1.23;0.45;;;;;;;;;;6295302;22;20048;-46
2022/05/16 04:26:26;;;;;;;0.20;0.20;;;;;;;;;;6294025;22;20085;-45
2022/05/16 04:28:51;;;;;;;0.03;0.03;;;;;;;;;;6295136;22;20841;-45
2022/05/16 04:31:17;;;;;;;0.15;0.13;;;;;;;;;;6266819;22;20396;-44
2022/05/16 04:33:42;;;;;;;0.38;0.38;;;;;;;;;;6296015;22;20026;-45
2022/05/16 04:36:07;;;;;;;1.75;0.80;;;;;;;;;;6266803;22;20011;-44
2022/05/16 04:38:32;;;;;;;0.20;0.20;;;;;;;;;;6295477;22;20011;-45
2022/05/16 04:43:42;;;;;;;0.25;0.25;;;;;;;;;;6293945;22;20006;-47
2022/05/16 04:46:07;;;;;;;0.20;0.20;;;;;;;;;;6293838;22;20050;-50
2022/05/16 04:48:33;;;;;;;0.32;0.32;;;;;;;;;;6265682;22;20545;-46
2022/05/16 04:50:59;;;;;;;0.10;0.10;;;;;;;;;;6294577;22;20144;-46
2022/05/16 04:53:24;;;;;;;0.47;0.47;;;;;;;;;;6292163;22;20011;-45
2022/05/16 04:55:50;;;;;;;0.52;0.52;;;;;;;;;;6295713;22;20015;-45
2022/05/16 04:58:15;;;;;;;0.38;0.38;;;;;;;;;;6292033;22;20565;-45
2022/05/16 05:00:41;;;;;;;0.77;0.63;;;;;;;;;;6267739;22;20019;-45
2022/05/16 05:03:06;;;;;;;0.35;0.35;;;;;;;;;;6292828;22;20007;-46
2022/05/16 05:05:31;;;;;;;0.63;0.63;;;;;;;;;;6295547;22;20011;-48
2022/05/16 05:07:56;;;;;;;0.43;0.38;;;;;;;;;;6293293;22;20090;-45
2022/05/16 05:15:52;;;;;;;1.17;1.17;;;;;;;;;;6295140;22;20057;-44
2022/05/16 05:18:17;;;;;;;2.13;0.65;;;;;;;;;;6293156;22;20569;-48
2022/05/16 05:20:44;;;;;;;0.40;0.40;;;;;;;;;;6295457;22;20011;-45
2022/05/16 05:23:09;;;;;;;1.75;1.65;;;;;;;;;;6293407;22;20846;-45
2022/05/16 05:25:35;;;;;;;1.02;0.95;;;;;;;;;;6295598;22;20015;-46
2022/05/16 05:28:02;;;;;;;0.10;0.10;;;;;;;;;;6293218;22;20362;-46
2022/05/16 05:30:29;;;;;;;1.15;0.75;;;;;;;;;;6294744;22;20007;-45
2022/05/16 05:32:54;;;;;;;0.98;0.30;;;;;;;;;;6293195;22;20576;-46
2022/05/16 05:35:19;;;;;;;0.00;0.00;;;;;;;;;;6293323;22;20022;-45
2022/05/16 05:37:45;;;;;;;5.38;0.75;;;;;;;;;;6295020;22;20007;-48
2022/05/16 05:40:10;;;;;;;0.93;0.93;;;;;;;;;;6293283;22;20854;-47
2022/05/16 05:42:36;;;;;;;0.30;0.30;;;;;;;;;;6293523;22;20076;-48
2022/05/16 05:45:01;;;;;;;2.38;0.65;;;;;;;;;;6293354;22;20073;-46
2022/05/16 05:47:27;;;;;;;7.50;2.22;;;;;;;;;;6292739;22;20088;-47
2022/05/16 05:49:52;;;;;;;1.73;0.73;;;;;;;;;;6294024;22;20007;-46
2022/05/16 05:52:18;;;;;;;1.55;0.70;;;;;;;;;;6292697;22;20094;-45
2022/05/16 05:54:44;;;;;;;1.30;0.85;;;;;;;;;;6294883;22;20011;-46
2022/05/16 05:57:09;;;;;;;0.65;0.38;;;;;;;;;;6292280;22;20011;-47
2022/05/16 05:59:34;;;;;;;1.27;0.73;;;;;;;;;;6294914;22;20023;-48
2022/05/16 06:02:00;;;;;;;0.10;0.10;;;;;;;;;;6292435;22;20023;-44
2022/05/16 06:04:25;;;;;;;0.45;0.45;;;;;;;;;;6267113;22;20019;-47
2022/05/16 06:06:51;;;;;;;8.57;0.80;;;;;;;;;;6294692;22;20008;-46
2022/05/16 06:09:16;;;;;;;0.10;0.10;;;;;;;;;;6293593;22;20129;-47
2022/05/16 06:11:41;;;;;;;0.57;0.57;;;;;;;;;;6294395;22;19999;-45
2022/05/16 06:14:07;;;;;;;2.72;1.10;;;;;;;;;;6294276;22;20019;-47
2022/05/16 06:16:32;;;;;;;6.05;0.73;;;;;;;;;;6292960;22;20011;-46
2022/05/16 06:18:57;;;;;;;0.43;0.28;;;;;;;;;;6293756;22;20037;-46
2022/05/16 06:21:23;;;;;;;0.40;0.13;;;;;;;;;;6292725;22;20030;-45
2022/05/16 06:23:48;;;;;;;4.65;1.27;;;;;;;;;;6295846;22;20049;-46
2022/05/16 06:26:14;;;;;;;0.65;0.45;;;;;;;;;;6291955;22;20000;-47
2022/05/16 06:28:39;;;;;;;0.52;0.52;;;;;;;;;;6295202;22;20018;-46
2022/05/16 06:31:05;;;;;;;0.32;0.10;;;;;;;;;;6293464;22;20011;-44
2022/05/16 06:33:30;;;;;;;0.93;0.90;;;;;;;;;;6291692;22;20015;-45
2022/05/16 06:35:56;;;;;;;0.32;0.32;;;;;;;;;;6294311;22;20016;-46
2022/05/16 06:38:22;;;;;;;0.93;0.93;;;;;;;;;;6291381;22;20015;-45
2022/05/16 06:40:48;;;;;;;1.08;0.60;;;;;;;;;;6266842;22;20358;-47
2022/05/16 06:43:14;;;;;;;0.65;0.65;;;;;;;;;;6292714;22;20021;-47
2022/05/16 06:45:39;;;;;;;0.88;0.63;;;;;;;;;;6293665;22;20011;-45
2022/05/16 06:48:05;;;;;;;1.27;1.23;;;;;;;;;;6293931;22;20380;-46
2022/05/16 06:50:30;;;;;;;0.43;0.40;;;;;;;;;;6292465;22;20034;-46
2022/05/16 06:52:56;;;;;;;0.50;0.47;;;;;;;;;;6293241;22;20027;-46
2022/05/16 06:55:21;;;;;;;0.63;0.63;;;;;;;;;;6291970;22;20029;-45
2022/05/16 06:57:46;;;;;;;0.47;0.47;;;;;;;;;;6291816;22;20113;-48
2022/05/16 07:00:12;;;;;;;3.47;0.75;;;;;;;;;;6286734;22;20034;-45
2022/05/16 07:02:38;;;;;;;3.47;1.75;;;;;;;;;;6292950;22;20022;-45
2022/05/16 07:05:04;;;;;;;6.40;1.25;;;;;;;;;;6270719;22;20007;-45
2022/05/16 07:07:29;;;;;;;0.00;0.00;;;;;;;;;;6284053;22;20011;-48
2022/05/16 07:09:54;;;;;;;0.32;0.32;;;;;;;;;;6284677;22;20092;-47
2022/05/16 07:12:20;;;;;;;0.35;0.35;;;;;;;;;;6265942;22;20030;-46
2022/05/16 07:14:45;;;;;;;0.25;0.25;;;;;;;;;;6292595;22;20011;-46
2022/05/16 07:17:10;;;;;;;0.80;0.80;;;;;;;;;;6294618;22;20457;-44
2022/05/16 07:19:36;;;;;;;0.88;0.57;;;;;;;;;;6293132;22;20007;-46
2022/05/16 07:22:02;;;;;;;8.15;1.23;;;;;;;;;;6295642;22;20018;-47
2022/05/16 07:24:28;;;;;;;0.30;0.30;;;;;;;;;;6293040;22;20011;-46
2022/05/16 07:29:37;;;;;;;0.22;0.22;;;;;;;;;;6293529;22;20422;-44
2022/05/16 07:32:03;;;;;;;1.45;0.40;;;;;;;;;;6294268;22;20529;-46
2022/05/16 07:34:28;;;;;;;0.43;0.43;;;;;;;;;;6294700;22;20011;-45
2022/05/16 07:36:54;;;;;;;0.03;0.03;;;;;;;;;;6295177;22;20000;-46
2022/05/16 07:39:19;;;;;;;0.10;0.10;;;;;;;;;;6295541;22;20015;-45
2022/05/16 07:41:45;;;;;;;0.00;0.00;;;;;;;;;;6295347;22;20023;-48
2022/05/16 07:44:10;;;;;;;0.10;0.10;;;;;;;;;;6294930;22;20473;-44
2022/05/16 07:46:36;;;;;;;2.40;0.65;;;;;;;;;;6294216;22;20614;-45
2022/05/16 07:49:01;;;;;;;0.03;0.03;;;;;;;;;;6294999;22;20011;-44
2022/05/16 07:51:26;;;;;;;1.10;1.10;;;;;;;;;;6292890;22;20015;-47
2022/05/16 07:53:51;;;;;;;0.10;0.10;;;;;;;;;;6294245;22;19999;-46
2022/05/16 07:56:17;;;;;;;0.08;0.08;;;;;;;;;;6289739;22;20452;-45
2022/05/16 07:58:42;;;;;;;2.28;0.47;;;;;;;;;;6290161;22;20012;-45
2022/05/16 08:01:07;;;;;;;0.45;0.45;;;;;;;;;;6286604;22;20332;-44
2022/05/16 08:03:33;;;;;;;0.47;0.47;;;;;;;;;;6265101;22;20467;-45
2022/05/16 08:05:58;;;;;;;0.40;0.40;;;;;;;;;;6289958;22;20015;-44
2022/05/16 08:11:11;;;;;;;0.22;0.22;;;;;;;;;;6289854;22;20080;-45
2022/05/16 08:13:37;;;;;;;0.03;0.03;;;;;;;;;;6288050;22;20007;-46
2022/05/16 08:16:02;;;;;;;0.82;0.82;;;;;;;;;;6285095;22;20446;-48
2022/05/16 08:18:27;;;;;;;0.05;0.05;;;;;;;;;;6291227;22;20007;-44
2022/05/16 08:20:53;;;;;;;0.10;0.10;;;;;;;;;;6289682;22;20042;-47
2022/05/16 08:23:21;;;;;;;0.10;0.10;;;;;;;;;;6294430;22;20022;-46
2022/05/16 08:25:47;;;;;;;0.17;0.17;;;;;;;;;;6293573;22;20014;-48
2022/05/16 08:28:12;;;;;;;1.75;0.32;;;;;;;;;;6294136;22;20011;-45
2022/05/16 08:30:38;;;;;;;0.10;0.10;;;;;;;;;;6294006;22;20038;-45
2022/05/16 08:33:04;;;;;;;0.20;0.10;;;;;;;;;;6295166;22;20031;-46
2022/05/16 08:35:29;;;;;;;0.57;0.57;;;;;;;;;;6291136;22;20023;-45
2022/05/16 08:40:53;;;;;;;0.10;0.10;;;;;;;;;;6293789;22;20026;-45
2022/05/16 08:43:27;;;;;;;0.00;0.00;;;;;;;;;;6294581;22;20022;-44
2022/05/16 08:46:08;;;;;;;0.47;0.32;;;;;;;;;;6265834;22;20160;-47
2022/05/16 08:48:37;;;;;;;0.10;0.10;;;;;;;;;;6293365;22;20360;-44
2022/05/16 08:51:05;;;;;;;0.00;0.00;;;;;;;;;;6293495;22;20138;-46
2022/05/16 08:53:32;;;;;;;0.87;0.87;;;;;;;;;;6292918;22;22175;-45
2022/05/16 08:55:59;;;;;;;0.45;0.45;;;;;;;;;;6294875;22;20455;-47
2022/05/16 08:58:24;;;;;;;0.00;0.00;;;;;;;;;;6292413;22;20531;-44
2022/05/16 09:00:54;;;;;;;0.00;0.00;;;;;;;;;;6295509;22;20023;-44
2022/05/16 09:03:26;;;;;;;0.10;0.10;;;;;;;;;;6291367;22;20015;-45
2022/05/16 09:06:16;;;;;;;0.00;0.00;;;;;;;;;;6293978;22;20019;-46
2022/05/16 09:08:41;;;;;;;;;;;;;;;;;;6224729;22;19999;-47
2022/05/16 09:11:32;;;;;;;1.45;0.47;;;;;;;;;;6293505;22;19910;-47
2022/05/16 09:14:00;;;;;;;0.00;0.00;;;;;;;;;;6246691;22;20159;-46
2022/05/16 09:16:28;;;;;;;0.10;0.10;;;;;;;;;;6292769;22;20015;-48
2022/05/16 09:19:06;;;;;;;0.70;0.55;;;;;;;;;;6295289;22;20073;-47
2022/05/16 09:21:41;;;;;;;0.10;0.10;;;;;;;;;;6290006;22;20086;-45
2022/05/16 09:24:12;;;;;;;0.43;0.43;;;;;;;;;;6294228;22;20015;-46
2022/05/16 09:26:49;;;;;;;0.50;0.50;;;;;;;;;;6291621;22;20031;-48
2022/05/16 09:29:18;;;;;;;0.00;0.00;;;;;;;;;;6292897;22;20022;-47
2022/05/16 09:31:44;;;;;;;0.00;0.00;;;;;;;;;;6295082;22;20010;-46
2022/05/16 09:34:10;;;;;;;1.35;0.35;;;;;;;;;;6293525;22;20026;-47
2022/05/16 09:36:40;;;;;;;0.13;0.13;;;;;;;;;;6293374;22;20015;-48
2022/05/16 09:39:06;;;;;;;0.10;0.10;;;;;;;;;;6292833;22;20019;-46
2022/05/16 09:41:37;;;;;;;0.10;0.10;;;;;;;;;;6294313;22;20030;-47
2022/05/16 09:44:18;;;;;;;0.10;0.10;;;;;;;;;;6292360;22;20042;-46
2022/05/16 09:46:44;;;;;;;0.73;0.70;;;;;;;;;;6293824;22;20775;-46
2022/05/16 09:49:11;;;;;;;0.00;0.00;;;;;;;;;;6292633;22;20012;-46
2022/05/16 09:51:44;;;;;;;0.05;0.05;;;;;;;;;;6266668;22;20034;-48
2022/05/16 09:54:24;;;;;;;0.03;0.03;;;;;;;;;;6292549;22;20060;-45
2022/05/16 09:57:16;;;;;;;0.10;0.10;;;;;;;;;;6294697;22;20011;-45
2022/05/16 09:59:47;;;;;;;0.35;0.35;;;;;;;;;;6287590;22;20008;-47
2022/05/16 10:02:19;;;;;;;0.00;0.00;;;;;;;;;;6291834;22;20015;-46
2022/05/16 10:04:46;;;;;;;2.45;0.95;;;;;;;;;;6290853;22;20014;-48
2022/05/16 10:07:11;;;;;;;0.38;0.35;;;;;;;;;;6291989;22;20017;-48
2022/05/16 10:09:47;;;;;;;0.10;0.10;;;;;;;;;;6290881;22;20027;-46
2022/05/16 10:12:16;;;;;;;0.00;0.00;;;;;;;;;;6285354;22;20015;-49
2022/05/16 10:14:42;;;;;;;0.03;0.03;;;;;;;;;;6287296;22;20822;-47
2022/05/16 10:17:10;;;;;;;0.00;0.00;;;;;;;;;;6289391;22;20011;-47
2022/05/16 10:19:38;;;;;;;0.00;0.00;;;;;;;;;;6292866;22;20105;-47
2022/05/16 10:22:14;;;;;;;0.00;0.00;;;;;;;;;;6289868;22;20035;-48
2022/05/16 10:24:42;;;;;;;0.00;0.00;;;;;;;;;;6292450;22;20003;-48
2022/05/16 10:27:09;;;;;;;0.75;0.10;;;;;;;;;;6289435;22;20012;-47
2022/05/16 10:29:37;;;;;;;0.13;0.00;;;;;;;;;;6265979;22;20347;-47
2022/05/16 10:35:23;;;;;;;0.00;0.00;;;;;;;;;;6292510;22;20100;-51
2022/05/16 10:37:49;;;;;;;0.00;0.00;;;;;;;;;;6245161;22;20010;-46
2022/05/16 10:40:27;;;;;;;0.00;0.00;;;;;;;;;;6290336;22;20540;-47
2022/05/16 10:43:06;;;;;;;0.00;0.00;;;;;;;;;;6294078;22;20022;-48
2022/05/16 10:45:32;;;;;;;0.00;0.00;;;;;;;;;;6266407;22;20016;-48
2022/05/16 10:48:14;;;;;;;1.55;0.55;;;;;;;;;;6265758;22;20018;-46
2022/05/16 10:50:46;;;;;;;0.00;0.00;;;;;;;;;;6267508;22;20085;-45
2022/05/16 10:53:15;;;;;;;0.00;0.00;;;;;;;;;;6288784;22;20110;-50
2022/05/16 10:55:41;;;;;;;;;;;;;;;;;;6290063;22;20063;-49
2022/05/16 10:58:06;;;;;;;0.00;0.00;;;;;;;;;;6288306;22;19907;-47
2022/05/16 11:00:47;;;;;;;0.10;0.10;;;;;;;;;;6295129;22;20385;-46
2022/05/16 11:03:18;;;;;;;0.00;0.00;;;;;;;;;;6265469;22;20308;-48
2022/05/16 11:05:54;;;;;;;0.00;0.00;;;;;;;;;;6295392;22;20011;-50
2022/05/16 11:08:35;;;;;;;0.00;0.00;;;;;;;;;;6295025;22;20008;-46
2022/05/16 11:11:00;;;;;;;0.00;0.00;;;;;;;;;;6293658;22;20079;-45
2022/05/16 11:13:25;;;;;;;0.10;0.10;;;;;;;;;;6294676;22;20089;-47
2022/05/16 11:15:59;;;;;;;0.00;0.00;;;;;;;;;;6295467;22;20011;-47
2022/05/16 11:18:31;;;;;;;0.00;0.00;;;;;;;;;;6289057;22;20019;-48
2022/05/16 11:20:59;;;;;;;0.03;0.03;;;;;;;;;;6291196;22;20047;-48
2022/05/16 11:23:28;;;;;;;1.08;0.30;;;;;;;;;;6290967;22;20015;-46
2022/05/16 11:25:53;;;;;;;0.00;0.00;;;;;;;;;;6291107;22;20007;-49
2022/05/16 11:28:21;;;;;;;0.63;0.63;;;;;;;;;;6291229;22;20730;-48
2022/05/16 11:31:25;;;;;;;0.00;0.00;;;;;;;;;;6291962;22;20015;-49
2022/05/16 11:33:51;;;;;;;0.50;0.50;;;;;;;;;;6137563;23;20018;-48
2022/05/16 11:36:45;;;;;;;0.10;0.10;;;;;;;;;;6135681;23;20240;-49
2022/05/16 11:39:18;;;;;;;0.10;0.10;;;;;;;;;;6231414;22;20019;-51
2022/05/16 11:42:07;;;;;;;0.10;0.10;;;;;;;;;;6291576;22;20038;-47
2022/05/16 11:44:32;;;;;;;0.47;0.47;;;;;;;;;;6233337;22;20026;-47
2022/05/16 11:47:08;;;;;;;0.00;0.00;;;;;;;;;;6263167;22;20011;-50
2022/05/16 11:49:48;;;;;;;0.00;0.00;;;;;;;;;;6291463;22;20007;-46
2022/05/16 11:52:16;;;;;;;0.30;0.30;;;;;;;;;;6289100;22;20085;-47
2022/05/16 11:54:44;;;;;;;0.20;0.20;;;;;;;;;;6290675;22;20547;-46
2022/05/16 12:03:08;;;;;;;0.00;0.00;;;;;;;;;;6289895;22;20071;-45
2022/05/16 12:05:36;;;;;;;0.00;0.00;;;;;;;;;;6265940;22;20007;-47
2022/05/16 12:08:20;;;;;;;0.05;0.05;;;;;;;;;;6227932;22;25635;-50
2022/05/16 12:11:09;;;;;;;0.00;0.00;;;;;;;;;;6233082;23;20012;-46
2022/05/16 12:13:39;;;;;;;0.00;0.00;;;;;;;;;;6223474;23;20048;-45
2022/05/16 12:16:16;;;;;;;0.10;0.10;;;;;;;;;;6233520;23;20060;-48
2022/05/16 12:18:49;;;;;;;0.00;0.00;;;;;;;;;;6245115;22;20407;-46
2022/05/16 12:21:18;;;;;;;0.30;0.30;;;;;;;;;;6231509;23;20420;-47
2022/05/16 12:23:47;;;;;;;0.00;0.00;;;;;;;;;;6234690;23;20047;-49
2022/05/16 12:26:25;;;;;;;0.00;0.00;;;;;;;;;;6230685;23;20012;-46
2022/05/16 12:29:08;;;;;;;0.00;0.00;;;;;;;;;;6247595;22;20066;-45
2022/05/16 12:31:45;;;;;;;0.00;0.00;;;;;;;;;;6232443;22;20507;-45
2022/05/16 12:34:11;;;;;;;0.00;0.00;;;;;;;;;;6232877;22;20520;-51
2022/05/16 12:36:37;;;;;;;0.20;0.20;;;;;;;;;;6232027;22;20050;-46
2022/05/16 12:39:14;;;;;;;0.03;0.03;;;;;;;;;;6232590;23;20012;-45
2022/05/16 12:42:00;;;;;;;0.00;0.00;;;;;;;;;;6247111;22;20561;-49
2022/05/16 12:44:25;;;;;;;0.00;0.00;;;;;;;;;;6207806;22;20016;-45
2022/05/16 12:47:04;;;;;;;0.00;0.00;;;;;;;;;;6231189;22;20125;-47
2022/05/16 12:49:50;;;;;;;0.10;0.10;;;;;;;;;;6228077;22;20026;-48
2022/05/16 12:52:27;;;;;;;0.20;0.20;;;;;;;;;;6225303;22;20373;-48
2022/05/16 12:54:53;;;;;;;0.00;0.00;;;;;;;;;;6229519;22;20012;-46
2022/05/16 12:57:21;;;;;;;0.00;0.00;;;;;;;;;;6227506;22;20092;-46
2022/05/16 12:59:47;;;;;;;0.00;0.00;;;;;;;;;;6232077;22;20586;-48
2022/05/16 13:02:30;;;;;;;0.03;0.03;;;;;;;;;;6229744;22;20024;-47
2022/05/16 13:05:09;;;;;;;0.00;0.00;;;;;;;;;;6231869;22;20012;-45
2022/05/16 13:07:40;;;;;;;0.00;0.00;;;;;;;;;;6232346;22;20019;-48
2022/05/16 13:10:09;;;;;;;0.00;0.00;;;;;;;;;;6230673;22;20012;-46
2022/05/16 13:13:03;;;;;;;0.00;0.00;;;;;;;;;;6206137;23;20028;-48
2022/05/16 13:15:47;;;;;;;0.00;0.00;;;;;;;;;;6229771;22;20027;-48
2022/05/16 13:18:17;;;;;;;0.00;0.00;;;;;;;;;;6226826;22;20027;-49
2022/05/16 13:20:44;;;;;;;0.00;0.00;;;;;;;;;;6233649;22;20016;-50
2022/05/16 13:23:09;;;;;;;0.25;0.25;;;;;;;;;;6226306;22;20012;-47
2022/05/16 13:29:21;;;;;;;0.00;0.00;;;;;;;;;;6233249;22;20038;-48
2022/05/16 13:31:05;;;;;;;0.00;0.00;;;;;;;;;;6230007;22;20015;-47
2022/05/16 13:33:33;;;;;;;0.00;0.00;;;;;;;;;;6233231;22;20020;-47
2022/05/16 13:36:13;;;;;;;0.00;0.00;;;;;;;;;;6227686;22;20015;-46
2022/05/16 13:38:38;;;;;;;0.00;0.00;;;;;;;;;;6246350;22;20008;-48
2022/05/16 13:41:04;;;;;;;0.00;0.00;;;;;;;;;;6229190;22;20067;-46
2022/05/16 13:43:30;;;;;;;0.00;0.00;;;;;;;;;;6230488;22;20023;-46
2022/05/16 13:46:14;;;;;;;0.00;0.00;;;;;;;;;;6230536;22;20051;-47
2022/05/16 13:48:40;;;;;;;0.00;0.00;;;;;;;;;;6240863;22;20008;-46
2022/05/16 13:51:05;;;;;;;0.40;0.20;;;;;;;;;;6244615;22;20032;-46
2022/05/16 13:53:31;;;;;;;0.40;0.20;;;;;;;;;;6231360;22;20012;-47
2022/05/16 13:55:57;;;;;;;0.00;0.00;;;;;;;;;;6232431;22;20012;-47
2022/05/16 13:58:25;;;;;;;0.20;0.10;;;;;;;;;;6229716;22;20013;-47
2022/05/16 14:01:10;;;;;;;0.00;0.00;;;;;;;;;;6227815;22;20028;-46
2022/05/16 14:03:35;;;;;;;0.00;0.00;;;;;;;;;;6227782;22;20019;-47
2022/05/16 14:06:01;;;;;;;0.13;0.13;;;;;;;;;;6231522;22;20012;-47
2022/05/16 14:08:41;;;;;;;0.00;0.00;;;;;;;;;;6230676;22;20027;-46
2022/05/16 14:11:06;;;;;;;0.08;0.08;;;;;;;;;;6230749;22;20119;-50
2022/05/16 14:13:33;;;;;;;0.10;0.10;;;;;;;;;;6232939;22;20032;-46
2022/05/16 14:16:06;;;;;;;0.22;0.22;;;;;;;;;;6230258;22;20035;-46
2022/05/16 14:18:51;;;;;;;0.00;0.00;;;;;;;;;;6232449;22;20480;-49
2022/05/16 14:21:18;;;;;;;0.00;0.00;;;;;;;;;;6230233;22;20509;-46
2022/05/16 14:23:43;;;;;;;0.47;0.47;;;;;;;;;;6233018;22;20004;-47
2022/05/16 14:26:10;;;;;;;0.00;0.00;;;;;;;;;;6230039;22;20019;-46
2022/05/16 14:28:42;;;;;;;0.00;0.00;;;;;;;;;;6248542;22;20008;-49
2022/05/16 14:31:22;;;;;;;0.05;0.05;;;;;;;;;;6231594;22;20016;-48
2022/05/16 14:33:54;;;;;;;0.10;0.10;;;;;;;;;;6231708;23;20032;-48
2022/05/16 14:36:30;;;;;;;0.00;0.00;;;;;;;;;;6207082;23;20016;-47
2022/05/16 14:39:02;;;;;;;0.10;0.10;;;;;;;;;;6231986;23;20011;-50
2022/05/16 14:41:28;;;;;;;0.28;0.28;;;;;;;;;;6234174;23;20028;-48
2022/05/16 14:43:55;;;;;;;0.00;0.00;;;;;;;;;;6232885;23;20079;-46
2022/05/16 14:49:05;;;;;;;0.00;0.00;;;;;;;;;;6234360;23;20015;-49
2022/05/16 14:51:33;;;;;;;0.65;0.20;;;;;;;;;;6232080;23;20069;-47
2022/05/16 14:53:58;;;;;;;0.00;0.00;;;;;;;;;;6233909;23;20035;-46
2022/05/16 14:56:24;;;;;;;0.15;0.15;;;;;;;;;;6244971;22;20016;-47
2022/05/16 14:58:51;;;;;;;0.00;0.00;;;;;;;;;;6235250;22;20024;-47
2022/05/16 15:04:03;;;;;;;0.00;0.00;;;;;;;;;;6233563;22;20019;-47
2022/05/16 15:06:33;;;;;;;0.00;0.00;;;;;;;;;;6232436;22;20016;-49
2022/05/16 15:09:00;;;;;;;0.10;0.10;;;;;;;;;;6206577;23;20014;-48
2022/05/16 15:11:30;;;;;;;0.00;0.00;;;;;;;;;;6233605;23;20548;-46
2022/05/16 15:13:56;;;;;;;0.00;0.00;;;;;;;;;;6233922;23;20375;-46
2022/05/16 15:16:22;;;;;;;0.00;0.00;;;;;;;;;;6245325;22;20039;-48
2022/05/16 15:18:47;;;;;;;0.00;0.00;;;;;;;;;;6234713;22;20004;-46
2022/05/16 15:21:13;;;;;;;0.55;0.55;;;;;;;;;;6231897;22;20039;-50
2022/05/16 15:23:39;;;;;;;0.00;0.00;;;;;;;;;;6234869;22;20019;-47
2022/05/16 15:26:07;;;;;;;0.00;0.00;;;;;;;;;;6232836;22;20008;-48
2022/05/16 15:28:33;;;;;;;0.00;0.00;;;;;;;;;;6234633;22;20012;-45
2022/05/16 15:30:58;;;;;;;0.00;0.00;;;;;;;;;;6231708;22;20015;-47
2022/05/16 15:33:23;;;;;;;0.00;0.00;;;;;;;;;;6233552;22;20074;-46